sensor_id;sensor_type;location;lat;lon;timestamp;P1;durP1;ratioP1;P2;durP2;ratioP2
20138;SDS011;10230;51.502;10.800;2022-08-19T00:00:34;11.73;;;10.50;;
20138;SDS011;10230;51.502;10.800;2022-08-19T00:03:00;11.88;;;10.82;;
20138;SDS011;10230;51.502;10.800;2022-08-19T00:05:26;11.88;;;10.73;;
20138;SDS011;10230;51.502;10.800;2022-08-19T00:07:52;11.13;;;10.23;;
20138;SDS011;10230;51.502;10.800;2022-08-19T00:10:18;11.15;;;10.25;;
20138;SDS011;10230;51.502;10.800;2022-08-19T00:12:45;11.75;;;10.75;;
20138;SDS011;10230;51.502;10.800;2022-08-19T00:15:12;11.45;;;10.32;;
20138;SDS011;10230;51.502;10.800;2022-08-19T00:17:39;11.20;;;10.20;;
20138;SDS011;10230;51.502;10.800;2022-08-19T00:20:05;11.68;;;10.68;;
20138;SDS011;10230;51.502;10.800;2022-08-19T00:22:31;10.98;;;10.00;;
20138;SDS011;10230;51.502;10.800;2022-08-19T00:24:58;11.00;;;10.10;;
20138;SDS011;10230;51.502;10.800;2022-08-19T00:27:24;11.57;;;10.52;;
20138;SDS011;10230;51.502;10.800;2022-08-19T00:29:51;11.20;;;10.30;;
20138;SDS011;10230;51.502;10.800;2022-08-19T00:32:17;10.40;;;9.60;;
20138;SDS011;10230;51.502;10.800;2022-08-19T00:34:43;10.18;;;9.30;;
20138;SDS011;10230;51.502;10.800;2022-08-19T00:37:09;9.75;;;9.00;;
20138;SDS011;10230;51.502;10.800;2022-08-19T00:39:35;10.57;;;9.68;;
20138;SDS011;10230;51.502;10.800;2022-08-19T00:42:01;11.50;;;10.57;;
20138;SDS011;10230;51.502;10.800;2022-08-19T00:44:28;11.48;;;10.55;;
20138;SDS011;10230;51.502;10.800;2022-08-19T00:46:56;11.15;;;10.23;;
20138;SDS011;10230;51.502;10.800;2022-08-19T00:51:54;12.05;;;10.93;;
20138;SDS011;10230;51.502;10.800;2022-08-19T00:54:21;11.90;;;11.00;;
20138;SDS011;10230;51.502;10.800;2022-08-19T00:56:47;12.70;;;11.52;;
20138;SDS011;10230;51.502;10.800;2022-08-19T00:59:14;12.27;;;11.20;;
20138;SDS011;10230;51.502;10.800;2022-08-19T01:01:42;11.70;;;10.70;;
20138;SDS011;10230;51.502;10.800;2022-08-19T01:04:09;11.80;;;10.82;;
20138;SDS011;10230;51.502;10.800;2022-08-19T01:06:35;12.75;;;11.65;;
20138;SDS011;10230;51.502;10.800;2022-08-19T01:09:02;12.52;;;11.52;;
20138;SDS011;10230;51.502;10.800;2022-08-19T01:11:30;13.50;;;12.00;;
20138;SDS011;10230;51.502;10.800;2022-08-19T01:13:56;12.23;;;11.25;;
20138;SDS011;10230;51.502;10.800;2022-08-19T01:16:24;12.13;;;11.13;;
20138;SDS011;10230;51.502;10.800;2022-08-19T01:18:50;12.70;;;11.45;;
20138;SDS011;10230;51.502;10.800;2022-08-19T01:21:18;12.25;;;11.20;;
20138;SDS011;10230;51.502;10.800;2022-08-19T01:23:47;11.20;;;10.25;;
20138;SDS011;10230;51.502;10.800;2022-08-19T01:26:15;12.73;;;11.63;;
20138;SDS011;10230;51.502;10.800;2022-08-19T01:28:42;12.75;;;11.65;;
20138;SDS011;10230;51.502;10.800;2022-08-19T01:31:14;12.98;;;11.98;;
20138;SDS011;10230;51.502;10.800;2022-08-19T01:33:40;12.02;;;11.02;;
20138;SDS011;10230;51.502;10.800;2022-08-19T01:36:08;12.95;;;11.75;;
20138;SDS011;10230;51.502;10.800;2022-08-19T01:38:37;12.45;;;11.23;;
20138;SDS011;10230;51.502;10.800;2022-08-19T01:41:04;13.45;;;12.20;;
20138;SDS011;10230;51.502;10.800;2022-08-19T01:43:30;14.43;;;13.00;;
20138;SDS011;10230;51.502;10.800;2022-08-19T01:45:57;14.15;;;13.05;;
20138;SDS011;10230;51.502;10.800;2022-08-19T01:48:23;13.90;;;12.63;;
20138;SDS011;10230;51.502;10.800;2022-08-19T01:50:49;13.35;;;12.23;;
20138;SDS011;10230;51.502;10.800;2022-08-19T01:53:15;13.98;;;12.63;;
20138;SDS011;10230;51.502;10.800;2022-08-19T01:55:42;12.80;;;11.77;;
20138;SDS011;10230;51.502;10.800;2022-08-19T01:58:16;13.50;;;12.25;;
20138;SDS011;10230;51.502;10.800;2022-08-19T02:00:43;13.57;;;12.38;;
20138;SDS011;10230;51.502;10.800;2022-08-19T02:03:10;13.55;;;12.35;;
20138;SDS011;10230;51.502;10.800;2022-08-19T02:05:36;13.63;;;12.52;;
20138;SDS011;10230;51.502;10.800;2022-08-19T02:08:02;13.60;;;12.43;;
20138;SDS011;10230;51.502;10.800;2022-08-19T02:10:29;13.13;;;12.07;;
20138;SDS011;10230;51.502;10.800;2022-08-19T02:12:55;12.68;;;11.57;;
20138;SDS011;10230;51.502;10.800;2022-08-19T02:15:21;12.90;;;11.80;;
20138;SDS011;10230;51.502;10.800;2022-08-19T02:17:47;14.10;;;12.90;;
20138;SDS011;10230;51.502;10.800;2022-08-19T02:20:13;13.20;;;12.05;;
20138;SDS011;10230;51.502;10.800;2022-08-19T02:22:40;12.57;;;11.48;;
20138;SDS011;10230;51.502;10.800;2022-08-19T02:25:08;12.60;;;11.63;;
20138;SDS011;10230;51.502;10.800;2022-08-19T02:27:34;12.82;;;11.73;;
20138;SDS011;10230;51.502;10.800;2022-08-19T02:30:00;15.48;;;13.98;;
20138;SDS011;10230;51.502;10.800;2022-08-19T02:32:26;15.20;;;13.82;;
20138;SDS011;10230;51.502;10.800;2022-08-19T02:34:52;13.75;;;12.45;;
20138;SDS011;10230;51.502;10.800;2022-08-19T02:37:18;13.02;;;11.93;;
20138;SDS011;10230;51.502;10.800;2022-08-19T02:40:03;14.68;;;13.35;;
20138;SDS011;10230;51.502;10.800;2022-08-19T02:42:29;14.18;;;12.90;;
20138;SDS011;10230;51.502;10.800;2022-08-19T02:44:56;13.98;;;12.80;;
20138;SDS011;10230;51.502;10.800;2022-08-19T02:47:22;14.63;;;13.43;;
20138;SDS011;10230;51.502;10.800;2022-08-19T02:49:48;15.65;;;14.35;;
20138;SDS011;10230;51.502;10.800;2022-08-19T02:52:15;15.05;;;13.85;;
20138;SDS011;10230;51.502;10.800;2022-08-19T02:54:41;14.68;;;13.48;;
20138;SDS011;10230;51.502;10.800;2022-08-19T02:57:07;14.35;;;13.10;;
20138;SDS011;10230;51.502;10.800;2022-08-19T02:59:33;14.75;;;13.45;;
20138;SDS011;10230;51.502;10.800;2022-08-19T03:01:59;14.20;;;12.95;;
20138;SDS011;10230;51.502;10.800;2022-08-19T03:04:25;14.27;;;13.05;;
20138;SDS011;10230;51.502;10.800;2022-08-19T03:06:51;15.43;;;14.00;;
20138;SDS011;10230;51.502;10.800;2022-08-19T03:09:18;15.60;;;14.18;;
20138;SDS011;10230;51.502;10.800;2022-08-19T03:11:44;15.60;;;14.15;;
20138;SDS011;10230;51.502;10.800;2022-08-19T03:14:11;16.40;;;14.98;;
20138;SDS011;10230;51.502;10.800;2022-08-19T03:16:42;17.73;;;16.10;;
20138;SDS011;10230;51.502;10.800;2022-08-19T03:19:08;15.88;;;14.48;;
20138;SDS011;10230;51.502;10.800;2022-08-19T03:21:34;17.92;;;16.33;;
20138;SDS011;10230;51.502;10.800;2022-08-19T03:24:02;18.10;;;16.52;;
20138;SDS011;10230;51.502;10.800;2022-08-19T03:26:28;17.98;;;16.30;;
20138;SDS011;10230;51.502;10.800;2022-08-19T03:28:54;20.20;;;18.33;;
20138;SDS011;10230;51.502;10.800;2022-08-19T03:31:21;18.85;;;17.10;;
20138;SDS011;10230;51.502;10.800;2022-08-19T03:33:48;17.13;;;15.40;;
20138;SDS011;10230;51.502;10.800;2022-08-19T03:36:19;18.20;;;16.67;;
20138;SDS011;10230;51.502;10.800;2022-08-19T03:38:49;19.02;;;17.20;;
20138;SDS011;10230;51.502;10.800;2022-08-19T03:41:20;19.60;;;17.73;;
20138;SDS011;10230;51.502;10.800;2022-08-19T03:43:46;20.02;;;18.30;;
20138;SDS011;10230;51.502;10.800;2022-08-19T03:46:14;20.52;;;18.70;;
20138;SDS011;10230;51.502;10.800;2022-08-19T03:48:41;20.58;;;18.67;;
20138;SDS011;10230;51.502;10.800;2022-08-19T03:51:08;21.13;;;19.33;;
20138;SDS011;10230;51.502;10.800;2022-08-19T03:53:40;20.73;;;18.65;;
20138;SDS011;10230;51.502;10.800;2022-08-19T03:56:08;20.95;;;18.95;;
20138;SDS011;10230;51.502;10.800;2022-08-19T03:58:34;21.80;;;19.70;;
20138;SDS011;10230;51.502;10.800;2022-08-19T04:01:06;20.80;;;18.90;;
20138;SDS011;10230;51.502;10.800;2022-08-19T04:03:32;21.45;;;19.60;;
20138;SDS011;10230;51.502;10.800;2022-08-19T04:06:08;22.27;;;20.17;;
20138;SDS011;10230;51.502;10.800;2022-08-19T04:08:34;19.10;;;17.15;;
20138;SDS011;10230;51.502;10.800;2022-08-19T04:11:00;22.77;;;20.60;;
20138;SDS011;10230;51.502;10.800;2022-08-19T04:13:26;20.77;;;18.85;;
20138;SDS011;10230;51.502;10.800;2022-08-19T04:15:52;20.88;;;18.73;;
20138;SDS011;10230;51.502;10.800;2022-08-19T04:18:18;19.48;;;17.70;;
20138;SDS011;10230;51.502;10.800;2022-08-19T04:20:45;19.00;;;17.20;;
20138;SDS011;10230;51.502;10.800;2022-08-19T04:23:13;18.33;;;16.73;;
20138;SDS011;10230;51.502;10.800;2022-08-19T04:25:40;19.15;;;17.35;;
20138;SDS011;10230;51.502;10.800;2022-08-19T04:28:07;17.20;;;15.55;;
20138;SDS011;10230;51.502;10.800;2022-08-19T04:30:48;17.70;;;16.00;;
20138;SDS011;10230;51.502;10.800;2022-08-19T04:33:15;18.10;;;16.38;;
20138;SDS011;10230;51.502;10.800;2022-08-19T04:35:42;17.60;;;15.35;;
20138;SDS011;10230;51.502;10.800;2022-08-19T04:38:09;17.60;;;15.77;;
20138;SDS011;10230;51.502;10.800;2022-08-19T04:40:39;14.45;;;13.05;;
20138;SDS011;10230;51.502;10.800;2022-08-19T04:43:24;15.82;;;14.35;;
20138;SDS011;10230;51.502;10.800;2022-08-19T04:45:50;14.98;;;12.63;;
20138;SDS011;10230;51.502;10.800;2022-08-19T04:48:16;14.55;;;13.10;;
20138;SDS011;10230;51.502;10.800;2022-08-19T04:50:47;11.77;;;10.52;;
20138;SDS011;10230;51.502;10.800;2022-08-19T04:53:13;12.23;;;11.13;;
20138;SDS011;10230;51.502;10.800;2022-08-19T04:55:41;13.60;;;12.27;;
20138;SDS011;10230;51.502;10.800;2022-08-19T04:58:07;12.45;;;11.15;;
20138;SDS011;10230;51.502;10.800;2022-08-19T05:00:33;12.45;;;11.18;;
20138;SDS011;10230;51.502;10.800;2022-08-19T05:02:59;14.38;;;11.30;;
20138;SDS011;10230;51.502;10.800;2022-08-19T05:05:25;12.18;;;10.90;;
20138;SDS011;10230;51.502;10.800;2022-08-19T05:07:51;12.73;;;11.63;;
20138;SDS011;10230;51.502;10.800;2022-08-19T05:10:17;11.23;;;10.23;;
20138;SDS011;10230;51.502;10.800;2022-08-19T05:12:44;12.98;;;11.68;;
20138;SDS011;10230;51.502;10.800;2022-08-19T05:15:10;11.38;;;10.25;;
20138;SDS011;10230;51.502;10.800;2022-08-19T05:17:36;12.10;;;10.02;;
20138;SDS011;10230;51.502;10.800;2022-08-19T05:20:03;11.25;;;9.73;;
20138;SDS011;10230;51.502;10.800;2022-08-19T05:22:48;11.98;;;10.82;;
20138;SDS011;10230;51.502;10.800;2022-08-19T05:25:19;12.77;;;11.45;;
20138;SDS011;10230;51.502;10.800;2022-08-19T05:27:45;10.43;;;9.52;;
20138;SDS011;10230;51.502;10.800;2022-08-19T05:30:12;9.68;;;8.57;;
20138;SDS011;10230;51.502;10.800;2022-08-19T05:32:38;10.57;;;9.02;;
20138;SDS011;10230;51.502;10.800;2022-08-19T05:35:04;10.00;;;9.07;;
20138;SDS011;10230;51.502;10.800;2022-08-19T05:37:30;11.38;;;10.18;;
20138;SDS011;10230;51.502;10.800;2022-08-19T05:39:56;11.77;;;10.57;;
20138;SDS011;10230;51.502;10.800;2022-08-19T05:42:22;11.30;;;10.05;;
20138;SDS011;10230;51.502;10.800;2022-08-19T05:44:49;12.00;;;10.80;;
20138;SDS011;10230;51.502;10.800;2022-08-19T05:47:16;10.90;;;10.00;;
20138;SDS011;10230;51.502;10.800;2022-08-19T05:49:43;10.77;;;9.43;;
20138;SDS011;10230;51.502;10.800;2022-08-19T05:52:11;12.45;;;11.35;;
20138;SDS011;10230;51.502;10.800;2022-08-19T05:54:39;13.38;;;12.07;;
20138;SDS011;10230;51.502;10.800;2022-08-19T05:57:06;12.02;;;10.88;;
20138;SDS011;10230;51.502;10.800;2022-08-19T05:59:33;16.98;;;12.02;;
20138;SDS011;10230;51.502;10.800;2022-08-19T06:02:00;13.20;;;9.90;;
20138;SDS011;10230;51.502;10.800;2022-08-19T06:04:26;12.05;;;10.48;;
20138;SDS011;10230;51.502;10.800;2022-08-19T06:06:52;13.73;;;10.55;;
20138;SDS011;10230;51.502;10.800;2022-08-19T06:09:19;11.43;;;10.35;;
20138;SDS011;10230;51.502;10.800;2022-08-19T06:11:51;10.55;;;9.57;;
20138;SDS011;10230;51.502;10.800;2022-08-19T06:14:19;9.20;;;8.20;;
20138;SDS011;10230;51.502;10.800;2022-08-19T06:16:46;10.18;;;9.18;;
20138;SDS011;10230;51.502;10.800;2022-08-19T06:19:14;8.55;;;7.75;;
20138;SDS011;10230;51.502;10.800;2022-08-19T06:21:41;8.77;;;7.63;;
20138;SDS011;10230;51.502;10.800;2022-08-19T06:24:10;9.77;;;8.80;;
20138;SDS011;10230;51.502;10.800;2022-08-19T06:26:38;10.65;;;7.93;;
20138;SDS011;10230;51.502;10.800;2022-08-19T06:29:05;9.30;;;8.30;;
20138;SDS011;10230;51.502;10.800;2022-08-19T06:31:32;8.15;;;5.93;;
20138;SDS011;10230;51.502;10.800;2022-08-19T06:33:59;11.18;;;7.80;;
20138;SDS011;10230;51.502;10.800;2022-08-19T06:36:28;12.00;;;8.35;;
20138;SDS011;10230;51.502;10.800;2022-08-19T06:38:58;8.55;;;7.13;;
20138;SDS011;10230;51.502;10.800;2022-08-19T06:41:25;9.65;;;8.20;;
20138;SDS011;10230;51.502;10.800;2022-08-19T06:43:52;12.48;;;9.70;;
20138;SDS011;10230;51.502;10.800;2022-08-19T06:46:18;9.30;;;7.18;;
20138;SDS011;10230;51.502;10.800;2022-08-19T06:48:45;10.25;;;9.10;;
20138;SDS011;10230;51.502;10.800;2022-08-19T06:51:12;9.20;;;7.43;;
20138;SDS011;10230;51.502;10.800;2022-08-19T06:53:40;8.05;;;7.07;;
20138;SDS011;10230;51.502;10.800;2022-08-19T06:56:10;7.38;;;6.50;;
20138;SDS011;10230;51.502;10.800;2022-08-19T06:58:37;7.60;;;6.90;;
20138;SDS011;10230;51.502;10.800;2022-08-19T07:01:04;9.30;;;6.18;;
20138;SDS011;10230;51.502;10.800;2022-08-19T07:03:31;7.05;;;6.35;;
20138;SDS011;10230;51.502;10.800;2022-08-19T07:05:57;6.07;;;5.40;;
20138;SDS011;10230;51.502;10.800;2022-08-19T07:08:28;6.18;;;5.57;;
20138;SDS011;10230;51.502;10.800;2022-08-19T07:10:54;7.15;;;5.90;;
20138;SDS011;10230;51.502;10.800;2022-08-19T07:13:21;7.43;;;6.00;;
20138;SDS011;10230;51.502;10.800;2022-08-19T07:15:48;6.97;;;6.10;;
20138;SDS011;10230;51.502;10.800;2022-08-19T07:18:15;8.88;;;5.97;;
20138;SDS011;10230;51.502;10.800;2022-08-19T07:20:41;8.93;;;6.22;;
20138;SDS011;10230;51.502;10.800;2022-08-19T07:23:08;5.55;;;5.00;;
20138;SDS011;10230;51.502;10.800;2022-08-19T07:25:35;6.07;;;4.95;;
20138;SDS011;10230;51.502;10.800;2022-08-19T07:28:02;6.57;;;5.45;;
20138;SDS011;10230;51.502;10.800;2022-08-19T07:30:28;5.93;;;4.38;;
20138;SDS011;10230;51.502;10.800;2022-08-19T07:32:54;5.95;;;4.53;;
20138;SDS011;10230;51.502;10.800;2022-08-19T07:35:21;4.25;;;3.67;;
20138;SDS011;10230;51.502;10.800;2022-08-19T07:37:48;5.55;;;3.95;;
20138;SDS011;10230;51.502;10.800;2022-08-19T07:40:14;5.53;;;4.55;;
20138;SDS011;10230;51.502;10.800;2022-08-19T07:42:41;4.95;;;4.22;;
20138;SDS011;10230;51.502;10.800;2022-08-19T07:45:08;6.07;;;3.75;;
20138;SDS011;10230;51.502;10.800;2022-08-19T07:47:35;5.25;;;3.65;;
20138;SDS011;10230;51.502;10.800;2022-08-19T07:50:01;6.55;;;4.10;;
20138;SDS011;10230;51.502;10.800;2022-08-19T07:52:29;5.20;;;4.03;;
20138;SDS011;10230;51.502;10.800;2022-08-19T07:54:55;6.82;;;3.85;;
20138;SDS011;10230;51.502;10.800;2022-08-19T07:57:22;5.13;;;3.55;;
20138;SDS011;10230;51.502;10.800;2022-08-19T07:59:48;4.72;;;3.53;;
20138;SDS011;10230;51.502;10.800;2022-08-19T08:02:14;3.40;;;3.03;;
20138;SDS011;10230;51.502;10.800;2022-08-19T08:04:40;5.20;;;3.08;;
20138;SDS011;10230;51.502;10.800;2022-08-19T08:07:25;4.28;;;3.60;;
20138;SDS011;10230;51.502;10.800;2022-08-19T08:10:09;3.25;;;2.95;;
20138;SDS011;10230;51.502;10.800;2022-08-19T08:12:37;3.80;;;3.40;;
20138;SDS011;10230;51.502;10.800;2022-08-19T08:15:13;4.68;;;3.38;;
20138;SDS011;10230;51.502;10.800;2022-08-19T08:17:41;3.75;;;2.92;;
20138;SDS011;10230;51.502;10.800;2022-08-19T08:20:08;4.68;;;3.38;;
20138;SDS011;10230;51.502;10.800;2022-08-19T08:22:34;4.57;;;3.22;;
20138;SDS011;10230;51.502;10.800;2022-08-19T08:25:20;4.43;;;3.05;;
20138;SDS011;10230;51.502;10.800;2022-08-19T08:27:47;4.18;;;3.03;;
20138;SDS011;10230;51.502;10.800;2022-08-19T08:30:24;3.88;;;3.50;;
20138;SDS011;10230;51.502;10.800;2022-08-19T08:32:50;3.40;;;3.10;;
20138;SDS011;10230;51.502;10.800;2022-08-19T08:35:18;7.00;;;3.72;;
20138;SDS011;10230;51.502;10.800;2022-08-19T08:37:46;6.43;;;3.53;;
20138;SDS011;10230;51.502;10.800;2022-08-19T08:40:47;3.58;;;3.25;;
20138;SDS011;10230;51.502;10.800;2022-08-19T08:45:38;5.43;;;3.25;;
20138;SDS011;10230;51.502;10.800;2022-08-19T08:48:12;3.45;;;2.72;;
20138;SDS011;10230;51.502;10.800;2022-08-19T08:50:41;3.42;;;3.13;;
20138;SDS011;10230;51.502;10.800;2022-08-19T08:53:08;3.75;;;3.10;;
20138;SDS011;10230;51.502;10.800;2022-08-19T08:55:34;3.55;;;2.72;;
20138;SDS011;10230;51.502;10.800;2022-08-19T08:58:12;3.08;;;2.72;;
20138;SDS011;10230;51.502;10.800;2022-08-19T09:00:42;3.28;;;2.97;;
20138;SDS011;10230;51.502;10.800;2022-08-19T09:03:14;4.78;;;2.90;;
20138;SDS011;10230;51.502;10.800;2022-08-19T09:08:20;4.13;;;3.72;;
20138;SDS011;10230;51.502;10.800;2022-08-19T09:10:51;4.90;;;3.90;;
20138;SDS011;10230;51.502;10.800;2022-08-19T09:13:28;4.93;;;4.15;;
20138;SDS011;10230;51.502;10.800;2022-08-19T09:16:18;4.10;;;3.10;;
20138;SDS011;10230;51.502;10.800;2022-08-19T09:18:47;5.35;;;3.00;;
20138;SDS011;10230;51.502;10.800;2022-08-19T09:21:16;5.25;;;4.20;;
20138;SDS011;10230;51.502;10.800;2022-08-19T09:23:42;4.00;;;3.10;;
20138;SDS011;10230;51.502;10.800;2022-08-19T09:26:12;2.95;;;2.70;;
20138;SDS011;10230;51.502;10.800;2022-08-19T09:28:42;3.95;;;3.47;;
20138;SDS011;10230;51.502;10.800;2022-08-19T09:31:10;4.65;;;3.80;;
20138;SDS011;10230;51.502;10.800;2022-08-19T09:33:36;5.15;;;2.90;;
20138;SDS011;10230;51.502;10.800;2022-08-19T09:36:04;6.32;;;3.55;;
20138;SDS011;10230;51.502;10.800;2022-08-19T09:38:31;3.47;;;2.72;;
20138;SDS011;10230;51.502;10.800;2022-08-19T09:41:01;3.88;;;2.67;;
20138;SDS011;10230;51.502;10.800;2022-08-19T09:43:27;4.53;;;3.88;;
20138;SDS011;10230;51.502;10.800;2022-08-19T09:45:53;8.13;;;5.05;;
20138;SDS011;10230;51.502;10.800;2022-08-19T09:48:19;3.80;;;3.28;;
20138;SDS011;10230;51.502;10.800;2022-08-19T09:50:46;4.15;;;3.33;;
20138;SDS011;10230;51.502;10.800;2022-08-19T09:53:12;4.07;;;3.45;;
20138;SDS011;10230;51.502;10.800;2022-08-19T09:55:41;4.90;;;2.80;;
20138;SDS011;10230;51.502;10.800;2022-08-19T09:58:07;3.20;;;2.90;;
20138;SDS011;10230;51.502;10.800;2022-08-19T10:00:34;3.38;;;2.35;;
20138;SDS011;10230;51.502;10.800;2022-08-19T10:03:00;3.30;;;2.97;;
20138;SDS011;10230;51.502;10.800;2022-08-19T10:05:26;2.95;;;2.22;;
20138;SDS011;10230;51.502;10.800;2022-08-19T10:08:11;3.17;;;2.30;;
20138;SDS011;10230;51.502;10.800;2022-08-19T10:10:37;2.65;;;2.33;;
20138;SDS011;10230;51.502;10.800;2022-08-19T10:13:03;3.63;;;2.47;;
20138;SDS011;10230;51.502;10.800;2022-08-19T10:15:29;4.03;;;3.47;;
20138;SDS011;10230;51.502;10.800;2022-08-19T10:17:55;8.25;;;6.53;;
20138;SDS011;10230;51.502;10.800;2022-08-19T10:20:21;5.95;;;5.40;;
20138;SDS011;10230;51.502;10.800;2022-08-19T10:22:47;3.75;;;2.70;;
20138;SDS011;10230;51.502;10.800;2022-08-19T10:25:13;4.18;;;2.20;;
20138;SDS011;10230;51.502;10.800;2022-08-19T10:27:41;2.03;;;1.70;;
20138;SDS011;10230;51.502;10.800;2022-08-19T10:30:07;2.58;;;2.20;;
20138;SDS011;10230;51.502;10.800;2022-08-19T10:32:34;3.13;;;2.45;;
20138;SDS011;10230;51.502;10.800;2022-08-19T10:35:01;3.70;;;3.08;;
20138;SDS011;10230;51.502;10.800;2022-08-19T10:37:27;5.22;;;2.08;;
20138;SDS011;10230;51.502;10.800;2022-08-19T10:39:55;4.00;;;2.25;;
20138;SDS011;10230;51.502;10.800;2022-08-19T10:42:21;2.15;;;1.98;;
20138;SDS011;10230;51.502;10.800;2022-08-19T10:44:46;4.85;;;2.10;;
20138;SDS011;10230;51.502;10.800;2022-08-19T10:47:13;2.35;;;2.05;;
20138;SDS011;10230;51.502;10.800;2022-08-19T10:49:39;3.33;;;1.98;;
20138;SDS011;10230;51.502;10.800;2022-08-19T10:52:25;2.50;;;1.88;;
20138;SDS011;10230;51.502;10.800;2022-08-19T10:55:00;4.88;;;1.90;;
20138;SDS011;10230;51.502;10.800;2022-08-19T10:57:45;2.42;;;2.00;;
20138;SDS011;10230;51.502;10.800;2022-08-19T11:00:11;3.75;;;2.28;;
20138;SDS011;10230;51.502;10.800;2022-08-19T11:02:38;2.00;;;1.80;;
20138;SDS011;10230;51.502;10.800;2022-08-19T11:05:04;3.08;;;1.90;;
20138;SDS011;10230;51.502;10.800;2022-08-19T11:07:31;1.80;;;1.50;;
20138;SDS011;10230;51.502;10.800;2022-08-19T11:09:57;1.35;;;1.25;;
20138;SDS011;10230;51.502;10.800;2022-08-19T11:12:23;1.92;;;1.40;;
20138;SDS011;10230;51.502;10.800;2022-08-19T11:14:49;2.85;;;1.55;;
20138;SDS011;10230;51.502;10.800;2022-08-19T11:17:15;1.98;;;1.40;;
20138;SDS011;10230;51.502;10.800;2022-08-19T11:19:41;2.95;;;1.63;;
20138;SDS011;10230;51.502;10.800;2022-08-19T11:22:08;2.60;;;1.30;;
20138;SDS011;10230;51.502;10.800;2022-08-19T11:24:35;1.50;;;1.40;;
20138;SDS011;10230;51.502;10.800;2022-08-19T11:27:03;4.13;;;1.50;;
20138;SDS011;10230;51.502;10.800;2022-08-19T11:29:32;2.58;;;2.05;;
20138;SDS011;10230;51.502;10.800;2022-08-19T11:31:59;8.65;;;1.90;;
20138;SDS011;10230;51.502;10.800;2022-08-19T11:34:28;1.75;;;1.23;;
20138;SDS011;10230;51.502;10.800;2022-08-19T11:36:55;2.65;;;1.20;;
20138;SDS011;10230;51.502;10.800;2022-08-19T11:39:26;2.35;;;0.88;;
20138;SDS011;10230;51.502;10.800;2022-08-19T11:41:53;1.83;;;1.48;;
20138;SDS011;10230;51.502;10.800;2022-08-19T11:44:19;2.78;;;1.20;;
20138;SDS011;10230;51.502;10.800;2022-08-19T11:46:45;1.50;;;1.40;;
20138;SDS011;10230;51.502;10.800;2022-08-19T11:49:11;2.30;;;1.70;;
20138;SDS011;10230;51.502;10.800;2022-08-19T11:51:38;1.67;;;1.27;;
20138;SDS011;10230;51.502;10.800;2022-08-19T12:33:06;5.63;;;2.47;;
20138;SDS011;10230;51.502;10.800;2022-08-19T12:37:58;5.68;;;1.40;;
20138;SDS011;10230;51.502;10.800;2022-08-19T12:40:25;1.30;;;1.20;;
20138;SDS011;10230;51.502;10.800;2022-08-19T12:50:08;1.90;;;1.20;;
20138;SDS011;10230;51.502;10.800;2022-08-19T12:52:35;1.05;;;0.95;;
20138;SDS011;10230;51.502;10.800;2022-08-19T12:55:07;2.70;;;1.50;;
20138;SDS011;10230;51.502;10.800;2022-08-19T12:57:34;3.08;;;1.90;;
20138;SDS011;10230;51.502;10.800;2022-08-19T13:00:03;2.42;;;1.48;;
20138;SDS011;10230;51.502;10.800;2022-08-19T13:02:37;2.10;;;1.40;;
20138;SDS011;10230;51.502;10.800;2022-08-19T13:05:06;1.77;;;1.30;;
20138;SDS011;10230;51.502;10.800;2022-08-19T13:07:33;2.92;;;1.13;;
20138;SDS011;10230;51.502;10.800;2022-08-19T13:09:59;3.35;;;1.40;;
20138;SDS011;10230;51.502;10.800;2022-08-19T13:12:25;3.08;;;1.30;;
20138;SDS011;10230;51.502;10.800;2022-08-19T13:14:52;1.73;;;1.05;;
20138;SDS011;10230;51.502;10.800;2022-08-19T13:17:19;3.10;;;1.55;;
20138;SDS011;10230;51.502;10.800;2022-08-19T13:19:45;2.58;;;1.45;;
20138;SDS011;10230;51.502;10.800;2022-08-19T13:22:10;3.20;;;1.38;;
20138;SDS011;10230;51.502;10.800;2022-08-19T13:24:37;2.45;;;1.30;;
20138;SDS011;10230;51.502;10.800;2022-08-19T13:27:03;3.33;;;1.15;;
20138;SDS011;10230;51.502;10.800;2022-08-19T13:29:29;5.63;;;1.35;;
20138;SDS011;10230;51.502;10.800;2022-08-19T13:32:13;4.25;;;1.38;;
20138;SDS011;10230;51.502;10.800;2022-08-19T13:34:57;2.00;;;1.58;;
20138;SDS011;10230;51.502;10.800;2022-08-19T13:37:23;3.70;;;1.30;;
20138;SDS011;10230;51.502;10.800;2022-08-19T13:40:06;1.92;;;1.20;;
20138;SDS011;10230;51.502;10.800;2022-08-19T13:42:38;1.40;;;1.23;;
20138;SDS011;10230;51.502;10.800;2022-08-19T13:45:04;2.47;;;1.90;;
20138;SDS011;10230;51.502;10.800;2022-08-19T13:47:31;5.00;;;1.38;;
20138;SDS011;10230;51.502;10.800;2022-08-19T13:50:04;3.25;;;1.33;;
20138;SDS011;10230;51.502;10.800;2022-08-19T13:52:30;4.72;;;1.63;;
20138;SDS011;10230;51.502;10.800;2022-08-19T13:54:55;2.33;;;1.40;;
20138;SDS011;10230;51.502;10.800;2022-08-19T13:57:21;1.70;;;1.20;;
20138;SDS011;10230;51.502;10.800;2022-08-19T13:59:47;1.90;;;1.67;;
20138;SDS011;10230;51.502;10.800;2022-08-19T14:02:13;2.65;;;1.30;;
20138;SDS011;10230;51.502;10.800;2022-08-19T14:04:39;1.58;;;1.27;;
20138;SDS011;10230;51.502;10.800;2022-08-19T14:07:05;1.15;;;1.13;;
20138;SDS011;10230;51.502;10.800;2022-08-19T14:09:31;2.65;;;1.42;;
20138;SDS011;10230;51.502;10.800;2022-08-19T14:11:56;4.38;;;1.60;;
20138;SDS011;10230;51.502;10.800;2022-08-19T14:14:22;1.60;;;1.15;;
20138;SDS011;10230;51.502;10.800;2022-08-19T14:16:48;2.42;;;1.40;;
20138;SDS011;10230;51.502;10.800;2022-08-19T14:19:14;2.55;;;1.45;;
20138;SDS011;10230;51.502;10.800;2022-08-19T14:21:40;2.42;;;1.02;;
20138;SDS011;10230;51.502;10.800;2022-08-19T14:24:06;1.40;;;1.10;;
20138;SDS011;10230;51.502;10.800;2022-08-19T14:26:33;2.30;;;1.30;;
20138;SDS011;10230;51.502;10.800;2022-08-19T14:28:59;1.52;;;1.10;;
20138;SDS011;10230;51.502;10.800;2022-08-19T14:31:26;1.40;;;1.25;;
20138;SDS011;10230;51.502;10.800;2022-08-19T14:33:52;2.92;;;1.30;;
20138;SDS011;10230;51.502;10.800;2022-08-19T14:36:18;2.28;;;1.92;;
20138;SDS011;10230;51.502;10.800;2022-08-19T14:38:46;3.05;;;1.10;;
20138;SDS011;10230;51.502;10.800;2022-08-19T14:41:16;5.03;;;1.40;;
20138;SDS011;10230;51.502;10.800;2022-08-19T14:43:47;3.13;;;1.20;;
20138;SDS011;10230;51.502;10.800;2022-08-19T14:46:16;2.33;;;1.55;;
20138;SDS011;10230;51.502;10.800;2022-08-19T14:48:45;1.55;;;1.23;;
20138;SDS011;10230;51.502;10.800;2022-08-19T14:51:11;2.53;;;1.30;;
20138;SDS011;10230;51.502;10.800;2022-08-19T14:53:39;4.28;;;1.50;;
20138;SDS011;10230;51.502;10.800;2022-08-19T14:56:12;1.58;;;1.20;;
20138;SDS011;10230;51.502;10.800;2022-08-19T14:58:40;3.00;;;1.02;;
20138;SDS011;10230;51.502;10.800;2022-08-19T15:01:07;2.67;;;1.33;;
20138;SDS011;10230;51.502;10.800;2022-08-19T15:03:33;2.70;;;1.25;;
20138;SDS011;10230;51.502;10.800;2022-08-19T15:05:59;2.55;;;1.00;;
20138;SDS011;10230;51.502;10.800;2022-08-19T15:08:26;1.85;;;1.00;;
20138;SDS011;10230;51.502;10.800;2022-08-19T15:10:52;2.40;;;1.63;;
20138;SDS011;10230;51.502;10.800;2022-08-19T15:13:18;2.53;;;1.30;;
20138;SDS011;10230;51.502;10.800;2022-08-19T15:15:44;1.73;;;1.40;;
20138;SDS011;10230;51.502;10.800;2022-08-19T15:18:11;6.05;;;2.70;;
20138;SDS011;10230;51.502;10.800;2022-08-19T15:20:38;8.20;;;3.60;;
20138;SDS011;10230;51.502;10.800;2022-08-19T15:23:04;4.70;;;3.20;;